sensor_id;sensor_type;location;lat;lon;timestamp;P1;durP1;ratioP1;P2;durP2;ratioP2
14470;SDS011;7321;50.802;4.336;2022-12-24T00:00:24;21.63;;;6.70;;
14470;SDS011;7321;50.802;4.336;2022-12-24T00:02:50;26.67;;;6.10;;
14470;SDS011;7321;50.802;4.336;2022-12-24T00:05:15;25.53;;;6.70;;
14470;SDS011;7321;50.802;4.336;2022-12-24T00:07:41;31.83;;;6.70;;
14470;SDS011;7321;50.802;4.336;2022-12-24T00:10:07;19.87;;;5.87;;
14470;SDS011;7321;50.802;4.336;2022-12-24T00:12:34;19.57;;;5.30;;
14470;SDS011;7321;50.802;4.336;2022-12-24T00:15:01;27.93;;;6.43;;
14470;SDS011;7321;50.802;4.336;2022-12-24T00:17:27;23.47;;;5.90;;
14470;SDS011;7321;50.802;4.336;2022-12-24T00:19:53;25.60;;;6.67;;
14470;SDS011;7321;50.802;4.336;2022-12-24T00:22:19;29.00;;;5.97;;
14470;SDS011;7321;50.802;4.336;2022-12-24T00:24:44;23.03;;;5.73;;
14470;SDS011;7321;50.802;4.336;2022-12-24T00:27:10;26.53;;;6.20;;
14470;SDS011;7321;50.802;4.336;2022-12-24T00:29:36;25.43;;;6.00;;
14470;SDS011;7321;50.802;4.336;2022-12-24T00:32:02;20.87;;;6.53;;
14470;SDS011;7321;50.802;4.336;2022-12-24T00:34:32;24.97;;;6.03;;
14470;SDS011;7321;50.802;4.336;2022-12-24T00:36:58;26.70;;;6.20;;
14470;SDS011;7321;50.802;4.336;2022-12-24T00:39:30;25.53;;;6.97;;
14470;SDS011;7321;50.802;4.336;2022-12-24T00:41:59;31.63;;;7.20;;
14470;SDS011;7321;50.802;4.336;2022-12-24T00:44:25;30.70;;;6.93;;
14470;SDS011;7321;50.802;4.336;2022-12-24T00:46:54;28.50;;;6.63;;
14470;SDS011;7321;50.802;4.336;2022-12-24T00:49:20;28.30;;;6.70;;
14470;SDS011;7321;50.802;4.336;2022-12-24T00:51:46;23.97;;;5.97;;
14470;SDS011;7321;50.802;4.336;2022-12-24T00:54:17;34.37;;;7.80;;
14470;SDS011;7321;50.802;4.336;2022-12-24T00:56:43;31.63;;;7.53;;
14470;SDS011;7321;50.802;4.336;2022-12-24T00:59:09;28.23;;;6.90;;
14470;SDS011;7321;50.802;4.336;2022-12-24T01:01:38;27.40;;;6.27;;
14470;SDS011;7321;50.802;4.336;2022-12-24T01:04:04;32.53;;;7.43;;
14470;SDS011;7321;50.802;4.336;2022-12-24T01:06:49;23.93;;;5.90;;
14470;SDS011;7321;50.802;4.336;2022-12-24T01:09:15;27.57;;;6.43;;
14470;SDS011;7321;50.802;4.336;2022-12-24T01:11:46;23.47;;;5.63;;
14470;SDS011;7321;50.802;4.336;2022-12-24T01:14:12;27.93;;;6.43;;
14470;SDS011;7321;50.802;4.336;2022-12-24T01:16:46;30.53;;;7.27;;
14470;SDS011;7321;50.802;4.336;2022-12-24T01:19:12;27.57;;;6.30;;
14470;SDS011;7321;50.802;4.336;2022-12-24T01:21:38;25.33;;;6.77;;
14470;SDS011;7321;50.802;4.336;2022-12-24T01:24:13;25.93;;;6.13;;
14470;SDS011;7321;50.802;4.336;2022-12-24T01:26:40;31.97;;;7.73;;
14470;SDS011;7321;50.802;4.336;2022-12-24T01:29:07;29.67;;;6.57;;
14470;SDS011;7321;50.802;4.336;2022-12-24T01:31:33;29.37;;;6.67;;
14470;SDS011;7321;50.802;4.336;2022-12-24T01:34:02;28.37;;;6.30;;
14470;SDS011;7321;50.802;4.336;2022-12-24T01:36:31;30.73;;;6.90;;
14470;SDS011;7321;50.802;4.336;2022-12-24T01:39:00;24.60;;;6.27;;
14470;SDS011;7321;50.802;4.336;2022-12-24T01:41:29;30.50;;;6.93;;
14470;SDS011;7321;50.802;4.336;2022-12-24T01:44:15;29.93;;;7.17;;
14470;SDS011;7321;50.802;4.336;2022-12-24T01:46:42;22.23;;;6.57;;
14470;SDS011;7321;50.802;4.336;2022-12-24T01:49:13;30.60;;;7.60;;
14470;SDS011;7321;50.802;4.336;2022-12-24T01:51:46;22.10;;;6.13;;
14470;SDS011;7321;50.802;4.336;2022-12-24T01:54:21;32.77;;;7.83;;
14470;SDS011;7321;50.802;4.336;2022-12-24T01:57:16;24.57;;;6.30;;
14470;SDS011;7321;50.802;4.336;2022-12-24T01:59:52;26.13;;;6.80;;
14470;SDS011;7321;50.802;4.336;2022-12-24T02:02:22;22.67;;;5.40;;
14470;SDS011;7321;50.802;4.336;2022-12-24T02:04:59;20.17;;;5.67;;
14470;SDS011;7321;50.802;4.336;2022-12-24T02:07:36;24.57;;;6.73;;
14470;SDS011;7321;50.802;4.336;2022-12-24T02:10:03;25.63;;;6.13;;
14470;SDS011;7321;50.802;4.336;2022-12-24T02:12:31;22.67;;;5.87;;
14470;SDS011;7321;50.802;4.336;2022-12-24T02:15:00;27.03;;;6.97;;
14470;SDS011;7321;50.802;4.336;2022-12-24T02:17:39;22.77;;;6.50;;
14470;SDS011;7321;50.802;4.336;2022-12-24T02:20:49;26.97;;;6.47;;
14470;SDS011;7321;50.802;4.336;2022-12-24T02:23:48;21.10;;;5.33;;
14470;SDS011;7321;50.802;4.336;2022-12-24T02:32:04;18.20;;;5.47;;
14470;SDS011;7321;50.802;4.336;2022-12-24T02:37:18;26.23;;;6.53;;
14470;SDS011;7321;50.802;4.336;2022-12-24T02:40:03;20.33;;;6.17;;
14470;SDS011;7321;50.802;4.336;2022-12-24T02:42:34;23.53;;;6.30;;
14470;SDS011;7321;50.802;4.336;2022-12-24T02:45:10;23.73;;;6.47;;
14470;SDS011;7321;50.802;4.336;2022-12-24T02:47:39;24.57;;;5.73;;
14470;SDS011;7321;50.802;4.336;2022-12-24T02:50:08;22.80;;;6.10;;
14470;SDS011;7321;50.802;4.336;2022-12-24T02:52:37;19.00;;;6.20;;
14470;SDS011;7321;50.802;4.336;2022-12-24T02:55:15;19.17;;;5.57;;
14470;SDS011;7321;50.802;4.336;2022-12-24T03:06:03;19.97;;;5.87;;
14470;SDS011;7321;50.802;4.336;2022-12-24T03:11:11;26.20;;;6.73;;
14470;SDS011;7321;50.802;4.336;2022-12-24T03:13:40;21.20;;;6.70;;
14470;SDS011;7321;50.802;4.336;2022-12-24T03:16:09;25.63;;;7.07;;
14470;SDS011;7321;50.802;4.336;2022-12-24T03:18:39;20.97;;;6.63;;
14470;SDS011;7321;50.802;4.336;2022-12-24T03:21:10;24.77;;;6.57;;
14470;SDS011;7321;50.802;4.336;2022-12-24T03:23:49;26.03;;;7.20;;
14470;SDS011;7321;50.802;4.336;2022-12-24T03:26:16;24.47;;;6.83;;
14470;SDS011;7321;50.802;4.336;2022-12-24T03:28:43;24.17;;;6.50;;
14470;SDS011;7321;50.802;4.336;2022-12-24T03:31:10;24.07;;;6.90;;
14470;SDS011;7321;50.802;4.336;2022-12-24T03:33:37;24.47;;;7.00;;
14470;SDS011;7321;50.802;4.336;2022-12-24T03:36:04;27.73;;;7.20;;
14470;SDS011;7321;50.802;4.336;2022-12-24T03:38:30;34.27;;;7.23;;
14470;SDS011;7321;50.802;4.336;2022-12-24T03:40:56;23.87;;;6.10;;
14470;SDS011;7321;50.802;4.336;2022-12-24T03:43:22;24.83;;;6.10;;
14470;SDS011;7321;50.802;4.336;2022-12-24T03:45:48;23.27;;;6.87;;
14470;SDS011;7321;50.802;4.336;2022-12-24T03:48:14;24.73;;;6.90;;
14470;SDS011;7321;50.802;4.336;2022-12-24T03:50:40;28.47;;;6.63;;
14470;SDS011;7321;50.802;4.336;2022-12-24T03:53:06;30.00;;;8.27;;
14470;SDS011;7321;50.802;4.336;2022-12-24T03:55:31;29.40;;;7.27;;
14470;SDS011;7321;50.802;4.336;2022-12-24T03:57:57;20.83;;;6.13;;
14470;SDS011;7321;50.802;4.336;2022-12-24T04:00:23;25.70;;;7.27;;
14470;SDS011;7321;50.802;4.336;2022-12-24T04:02:49;28.03;;;6.87;;
14470;SDS011;7321;50.802;4.336;2022-12-24T04:05:16;28.03;;;6.60;;
14470;SDS011;7321;50.802;4.336;2022-12-24T04:07:43;25.17;;;6.93;;
14470;SDS011;7321;50.802;4.336;2022-12-24T04:10:10;30.30;;;6.20;;
14470;SDS011;7321;50.802;4.336;2022-12-24T04:12:36;22.87;;;6.00;;
14470;SDS011;7321;50.802;4.336;2022-12-24T04:15:02;26.40;;;6.47;;
14470;SDS011;7321;50.802;4.336;2022-12-24T04:17:28;29.10;;;6.27;;
14470;SDS011;7321;50.802;4.336;2022-12-24T04:19:54;26.73;;;6.53;;
14470;SDS011;7321;50.802;4.336;2022-12-24T04:22:20;29.30;;;6.40;;
14470;SDS011;7321;50.802;4.336;2022-12-24T04:24:46;25.13;;;7.40;;
14470;SDS011;7321;50.802;4.336;2022-12-24T04:27:12;30.97;;;7.10;;
14470;SDS011;7321;50.802;4.336;2022-12-24T04:29:38;22.00;;;6.80;;
14470;SDS011;7321;50.802;4.336;2022-12-24T04:32:04;28.27;;;5.97;;
14470;SDS011;7321;50.802;4.336;2022-12-24T04:34:30;19.70;;;5.93;;
14470;SDS011;7321;50.802;4.336;2022-12-24T04:36:56;30.80;;;7.27;;
14470;SDS011;7321;50.802;4.336;2022-12-24T04:39:22;21.30;;;6.60;;
14470;SDS011;7321;50.802;4.336;2022-12-24T04:41:48;20.60;;;5.80;;
14470;SDS011;7321;50.802;4.336;2022-12-24T04:44:13;21.67;;;7.43;;
14470;SDS011;7321;50.802;4.336;2022-12-24T04:46:39;30.90;;;6.70;;
14470;SDS011;7321;50.802;4.336;2022-12-24T04:49:06;22.73;;;6.27;;
14470;SDS011;7321;50.802;4.336;2022-12-24T04:51:32;22.33;;;6.30;;
14470;SDS011;7321;50.802;4.336;2022-12-24T04:53:58;32.30;;;7.67;;
14470;SDS011;7321;50.802;4.336;2022-12-24T04:56:26;25.20;;;7.20;;
14470;SDS011;7321;50.802;4.336;2022-12-24T04:58:53;27.33;;;6.90;;
14470;SDS011;7321;50.802;4.336;2022-12-24T05:01:21;26.03;;;6.80;;
14470;SDS011;7321;50.802;4.336;2022-12-24T05:03:49;33.57;;;7.50;;
14470;SDS011;7321;50.802;4.336;2022-12-24T05:06:20;28.33;;;7.30;;
14470;SDS011;7321;50.802;4.336;2022-12-24T05:08:48;30.30;;;6.80;;
14470;SDS011;7321;50.802;4.336;2022-12-24T05:11:14;27.07;;;7.23;;
14470;SDS011;7321;50.802;4.336;2022-12-24T05:13:41;28.50;;;7.67;;
14470;SDS011;7321;50.802;4.336;2022-12-24T05:16:08;26.43;;;5.93;;
14470;SDS011;7321;50.802;4.336;2022-12-24T05:18:35;27.20;;;7.00;;
14470;SDS011;7321;50.802;4.336;2022-12-24T05:21:01;30.43;;;6.57;;
14470;SDS011;7321;50.802;4.336;2022-12-24T05:23:27;24.03;;;6.57;;
14470;SDS011;7321;50.802;4.336;2022-12-24T05:26:18;22.43;;;6.27;;
14470;SDS011;7321;50.802;4.336;2022-12-24T05:28:52;27.93;;;7.43;;
14470;SDS011;7321;50.802;4.336;2022-12-24T05:31:20;27.77;;;6.97;;
14470;SDS011;7321;50.802;4.336;2022-12-24T05:33:56;23.93;;;6.73;;
14470;SDS011;7321;50.802;4.336;2022-12-24T05:36:22;25.87;;;6.47;;
14470;SDS011;7321;50.802;4.336;2022-12-24T05:38:48;27.40;;;6.17;;
14470;SDS011;7321;50.802;4.336;2022-12-24T05:41:23;30.47;;;7.40;;
14470;SDS011;7321;50.802;4.336;2022-12-24T05:43:50;26.67;;;7.43;;
14470;SDS011;7321;50.802;4.336;2022-12-24T05:46:17;26.13;;;6.80;;
14470;SDS011;7321;50.802;4.336;2022-12-24T05:48:44;30.97;;;7.83;;
14470;SDS011;7321;50.802;4.336;2022-12-24T05:51:11;34.87;;;8.13;;
14470;SDS011;7321;50.802;4.336;2022-12-24T05:53:38;27.93;;;7.30;;
14470;SDS011;7321;50.802;4.336;2022-12-24T05:56:08;26.70;;;6.70;;
14470;SDS011;7321;50.802;4.336;2022-12-24T05:58:39;32.57;;;6.43;;
14470;SDS011;7321;50.802;4.336;2022-12-24T06:01:06;23.27;;;6.40;;
14470;SDS011;7321;50.802;4.336;2022-12-24T06:03:33;29.87;;;6.97;;
14470;SDS011;7321;50.802;4.336;2022-12-24T06:06:03;31.33;;;8.00;;
14470;SDS011;7321;50.802;4.336;2022-12-24T06:08:32;30.73;;;6.53;;
14470;SDS011;7321;50.802;4.336;2022-12-24T06:11:00;24.97;;;6.70;;
14470;SDS011;7321;50.802;4.336;2022-12-24T06:13:29;28.27;;;7.47;;
14470;SDS011;7321;50.802;4.336;2022-12-24T06:15:56;28.07;;;6.93;;
14470;SDS011;7321;50.802;4.336;2022-12-24T06:18:22;31.97;;;7.53;;
14470;SDS011;7321;50.802;4.336;2022-12-24T06:20:49;28.47;;;7.27;;
14470;SDS011;7321;50.802;4.336;2022-12-24T06:23:16;28.70;;;6.70;;
14470;SDS011;7321;50.802;4.336;2022-12-24T06:25:42;32.53;;;7.33;;
14470;SDS011;7321;50.802;4.336;2022-12-24T06:28:07;27.50;;;7.57;;
14470;SDS011;7321;50.802;4.336;2022-12-24T06:30:33;36.77;;;7.77;;
14470;SDS011;7321;50.802;4.336;2022-12-24T06:32:59;30.63;;;6.87;;
14470;SDS011;7321;50.802;4.336;2022-12-24T06:35:25;24.93;;;6.77;;
14470;SDS011;7321;50.802;4.336;2022-12-24T06:37:50;25.83;;;6.93;;
14470;SDS011;7321;50.802;4.336;2022-12-24T06:40:16;25.10;;;6.50;;
14470;SDS011;7321;50.802;4.336;2022-12-24T06:42:42;22.27;;;6.83;;
14470;SDS011;7321;50.802;4.336;2022-12-24T06:45:08;29.97;;;7.47;;
14470;SDS011;7321;50.802;4.336;2022-12-24T06:47:34;34.60;;;7.80;;
14470;SDS011;7321;50.802;4.336;2022-12-24T06:50:00;30.30;;;7.17;;
14470;SDS011;7321;50.802;4.336;2022-12-24T06:52:26;25.80;;;6.50;;
14470;SDS011;7321;50.802;4.336;2022-12-24T06:54:52;24.00;;;6.30;;
14470;SDS011;7321;50.802;4.336;2022-12-24T06:57:17;27.23;;;7.03;;
14470;SDS011;7321;50.802;4.336;2022-12-24T06:59:43;28.47;;;7.80;;
14470;SDS011;7321;50.802;4.336;2022-12-24T07:02:09;37.67;;;7.13;;
14470;SDS011;7321;50.802;4.336;2022-12-24T07:04:35;36.47;;;8.00;;
14470;SDS011;7321;50.802;4.336;2022-12-24T07:07:00;25.80;;;6.67;;
14470;SDS011;7321;50.802;4.336;2022-12-24T07:09:26;28.57;;;6.77;;
14470;SDS011;7321;50.802;4.336;2022-12-24T07:11:52;31.20;;;7.40;;
14470;SDS011;7321;50.802;4.336;2022-12-24T07:14:18;23.27;;;7.60;;
14470;SDS011;7321;50.802;4.336;2022-12-24T07:16:43;25.80;;;6.70;;
14470;SDS011;7321;50.802;4.336;2022-12-24T07:19:09;23.73;;;7.40;;
14470;SDS011;7321;50.802;4.336;2022-12-24T07:21:35;26.03;;;7.13;;
14470;SDS011;7321;50.802;4.336;2022-12-24T07:24:01;25.37;;;7.17;;
14470;SDS011;7321;50.802;4.336;2022-12-24T07:26:27;30.47;;;7.77;;
14470;SDS011;7321;50.802;4.336;2022-12-24T07:28:52;28.03;;;6.80;;
14470;SDS011;7321;50.802;4.336;2022-12-24T07:31:18;29.07;;;8.37;;
14470;SDS011;7321;50.802;4.336;2022-12-24T07:33:44;34.00;;;8.67;;
14470;SDS011;7321;50.802;4.336;2022-12-24T07:36:13;29.73;;;8.07;;
14470;SDS011;7321;50.802;4.336;2022-12-24T07:38:47;32.43;;;8.30;;
14470;SDS011;7321;50.802;4.336;2022-12-24T07:41:13;29.43;;;7.90;;
14470;SDS011;7321;50.802;4.336;2022-12-24T07:43:40;26.63;;;6.77;;
14470;SDS011;7321;50.802;4.336;2022-12-24T07:46:24;25.53;;;7.23;;
14470;SDS011;7321;50.802;4.336;2022-12-24T07:48:50;29.73;;;7.40;;
14470;SDS011;7321;50.802;4.336;2022-12-24T07:51:16;27.80;;;7.50;;
14470;SDS011;7321;50.802;4.336;2022-12-24T07:53:42;28.23;;;7.33;;
14470;SDS011;7321;50.802;4.336;2022-12-24T07:56:15;30.40;;;7.93;;
14470;SDS011;7321;50.802;4.336;2022-12-24T07:58:41;26.00;;;6.60;;
14470;SDS011;7321;50.802;4.336;2022-12-24T08:01:07;24.63;;;7.17;;
14470;SDS011;7321;50.802;4.336;2022-12-24T08:03:37;35.87;;;8.77;;
14470;SDS011;7321;50.802;4.336;2022-12-24T08:06:03;29.33;;;6.97;;
14470;SDS011;7321;50.802;4.336;2022-12-24T08:08:29;27.20;;;7.17;;
14470;SDS011;7321;50.802;4.336;2022-12-24T08:10:59;35.17;;;8.13;;
14470;SDS011;7321;50.802;4.336;2022-12-24T08:13:31;30.60;;;8.53;;
14470;SDS011;7321;50.802;4.336;2022-12-24T08:15:57;31.27;;;8.03;;
14470;SDS011;7321;50.802;4.336;2022-12-24T08:18:23;32.53;;;7.80;;
14470;SDS011;7321;50.802;4.336;2022-12-24T08:20:51;26.97;;;7.27;;
14470;SDS011;7321;50.802;4.336;2022-12-24T08:23:16;30.90;;;7.40;;
14470;SDS011;7321;50.802;4.336;2022-12-24T08:25:43;27.70;;;8.37;;
14470;SDS011;7321;50.802;4.336;2022-12-24T08:28:11;29.07;;;7.43;;
14470;SDS011;7321;50.802;4.336;2022-12-24T08:30:38;26.13;;;7.83;;
14470;SDS011;7321;50.802;4.336;2022-12-24T08:33:03;26.60;;;7.03;;
14470;SDS011;7321;50.802;4.336;2022-12-24T08:35:29;31.83;;;7.77;;
14470;SDS011;7321;50.802;4.336;2022-12-24T08:37:55;26.20;;;7.43;;
14470;SDS011;7321;50.802;4.336;2022-12-24T08:40:21;31.40;;;7.37;;
14470;SDS011;7321;50.802;4.336;2022-12-24T08:42:48;34.70;;;7.70;;
14470;SDS011;7321;50.802;4.336;2022-12-24T08:45:13;31.60;;;7.43;;
14470;SDS011;7321;50.802;4.336;2022-12-24T08:47:39;27.53;;;6.70;;
14470;SDS011;7321;50.802;4.336;2022-12-24T08:50:05;35.27;;;8.27;;
14470;SDS011;7321;50.802;4.336;2022-12-24T08:52:32;32.90;;;7.23;;
14470;SDS011;7321;50.802;4.336;2022-12-24T08:54:58;24.30;;;7.07;;
14470;SDS011;7321;50.802;4.336;2022-12-24T08:57:24;24.77;;;7.50;;
14470;SDS011;7321;50.802;4.336;2022-12-24T08:59:50;32.40;;;7.40;;
14470;SDS011;7321;50.802;4.336;2022-12-24T09:02:15;24.53;;;7.80;;
14470;SDS011;7321;50.802;4.336;2022-12-24T09:04:41;26.10;;;7.37;;
14470;SDS011;7321;50.802;4.336;2022-12-24T09:07:07;31.43;;;7.10;;
14470;SDS011;7321;50.802;4.336;2022-12-24T09:09:34;27.37;;;7.20;;
14470;SDS011;7321;50.802;4.336;2022-12-24T09:12:00;29.47;;;7.43;;
14470;SDS011;7321;50.802;4.336;2022-12-24T09:14:28;28.03;;;7.27;;
14470;SDS011;7321;50.802;4.336;2022-12-24T09:16:54;33.10;;;7.70;;
14470;SDS011;7321;50.802;4.336;2022-12-24T09:19:20;23.03;;;6.67;;
14470;SDS011;7321;50.802;4.336;2022-12-24T09:21:48;25.57;;;7.23;;
14470;SDS011;7321;50.802;4.336;2022-12-24T09:24:14;27.30;;;6.77;;
14470;SDS011;7321;50.802;4.336;2022-12-24T09:26:40;32.53;;;7.63;;
14470;SDS011;7321;50.802;4.336;2022-12-24T09:29:06;25.57;;;7.20;;
14470;SDS011;7321;50.802;4.336;2022-12-24T09:31:34;33.97;;;7.70;;
14470;SDS011;7321;50.802;4.336;2022-12-24T09:34:01;24.73;;;7.57;;
14470;SDS011;7321;50.802;4.336;2022-12-24T09:39:27;23.97;;;7.07;;
14470;SDS011;7321;50.802;4.336;2022-12-24T09:47:41;27.70;;;7.20;;
14470;SDS011;7321;50.802;4.336;2022-12-24T09:50:21;25.87;;;7.83;;
14470;SDS011;7321;50.802;4.336;2022-12-24T09:53:16;30.37;;;9.30;;
14470;SDS011;7321;50.802;4.336;2022-12-24T09:55:52;29.07;;;7.47;;
14470;SDS011;7321;50.802;4.336;2022-12-24T09:58:29;27.07;;;7.23;;
14470;SDS011;7321;50.802;4.336;2022-12-24T10:01:01;26.67;;;7.67;;
14470;SDS011;7321;50.802;4.336;2022-12-24T10:03:27;29.50;;;8.30;;
14470;SDS011;7321;50.802;4.336;2022-12-24T10:06:00;29.53;;;8.10;;
14470;SDS011;7321;50.802;4.336;2022-12-24T10:19:42;30.50;;;8.33;;
14470;SDS011;7321;50.802;4.336;2022-12-24T10:23:08;26.00;;;7.30;;
14470;SDS011;7321;50.802;4.336;2022-12-24T10:31:13;23.07;;;6.87;;
14470;SDS011;7321;50.802;4.336;2022-12-24T10:33:47;32.90;;;7.87;;
14470;SDS011;7321;50.802;4.336;2022-12-24T10:36:16;25.53;;;7.23;;
14470;SDS011;7321;50.802;4.336;2022-12-24T10:38:45;26.10;;;7.63;;
14470;SDS011;7321;50.802;4.336;2022-12-24T10:41:11;29.33;;;7.77;;
14470;SDS011;7321;50.802;4.336;2022-12-24T10:43:57;28.87;;;7.07;;
14470;SDS011;7321;50.802;4.336;2022-12-24T10:46:37;24.03;;;6.93;;
14470;SDS011;7321;50.802;4.336;2022-12-24T10:49:04;33.77;;;8.10;;
14470;SDS011;7321;50.802;4.336;2022-12-24T10:51:36;26.57;;;6.83;;
14470;SDS011;7321;50.802;4.336;2022-12-24T10:54:11;22.20;;;7.10;;
14470;SDS011;7321;50.802;4.336;2022-12-24T10:56:41;33.47;;;9.63;;
14470;SDS011;7321;50.802;4.336;2022-12-24T11:01:56;29.73;;;7.40;;
14470;SDS011;7321;50.802;4.336;2022-12-24T11:04:28;31.33;;;7.37;;
14470;SDS011;7321;50.802;4.336;2022-12-24T11:06:58;19.93;;;6.70;;
14470;SDS011;7321;50.802;4.336;2022-12-24T11:09:35;27.50;;;8.17;;
14470;SDS011;7321;50.802;4.336;2022-12-24T11:12:17;26.80;;;7.80;;
14470;SDS011;7321;50.802;4.336;2022-12-24T11:14:47;32.03;;;9.00;;
14470;SDS011;7321;50.802;4.336;2022-12-24T11:17:31;29.33;;;7.90;;
14470;SDS011;7321;50.802;4.336;2022-12-24T11:19:58;22.93;;;6.97;;
14470;SDS011;7321;50.802;4.336;2022-12-24T11:22:28;29.47;;;7.13;;
14470;SDS011;7321;50.802;4.336;2022-12-24T11:32:40;27.47;;;6.93;;
14470;SDS011;7321;50.802;4.336;2022-12-24T11:35:13;25.67;;;6.80;;
14470;SDS011;7321;50.802;4.336;2022-12-24T11:40:27;28.80;;;6.70;;
14470;SDS011;7321;50.802;4.336;2022-12-24T11:43:10;25.83;;;8.03;;
14470;SDS011;7321;50.802;4.336;2022-12-24T11:46:01;24.20;;;6.83;;
14470;SDS011;7321;50.802;4.336;2022-12-24T11:48:36;24.23;;;7.43;;
14470;SDS011;7321;50.802;4.336;2022-12-24T11:51:03;27.30;;;7.30;;
14470;SDS011;7321;50.802;4.336;2022-12-24T11:53:37;22.07;;;7.50;;
14470;SDS011;7321;50.802;4.336;2022-12-24T11:56:07;25.73;;;7.33;;
14470;SDS011;7321;50.802;4.336;2022-12-24T12:01:55;26.07;;;7.10;;
14470;SDS011;7321;50.802;4.336;2022-12-24T12:04:29;25.20;;;7.97;;
14470;SDS011;7321;50.802;4.336;2022-12-24T12:07:12;25.63;;;6.90;;
14470;SDS011;7321;50.802;4.336;2022-12-24T12:09:46;21.97;;;6.87;;
14470;SDS011;7321;50.802;4.336;2022-12-24T12:12:23;22.13;;;6.47;;
14470;SDS011;7321;50.802;4.336;2022-12-24T12:18:17;26.30;;;6.87;;
14470;SDS011;7321;50.802;4.336;2022-12-24T12:20:55;27.63;;;6.97;;
14470;SDS011;7321;50.802;4.336;2022-12-24T12:23:29;24.90;;;6.83;;
14470;SDS011;7321;50.802;4.336;2022-12-24T12:31:52;26.23;;;6.83;;
14470;SDS011;7321;50.802;4.336;2022-12-24T12:34:43;28.07;;;7.63;;
14470;SDS011;7321;50.802;4.336;2022-12-24T12:37:34;25.27;;;7.60;;
14470;SDS011;7321;50.802;4.336;2022-12-24T12:40:10;25.87;;;6.63;;
14470;SDS011;7321;50.802;4.336;2022-12-24T12:42:38;31.13;;;8.33;;
14470;SDS011;7321;50.802;4.336;2022-12-24T12:45:26;22.97;;;7.03;;
14470;SDS011;7321;50.802;4.336;2022-12-24T12:51:44;21.33;;;6.97;;
14470;SDS011;7321;50.802;4.336;2022-12-24T12:54:39;27.70;;;7.83;;
14470;SDS011;7321;50.802;4.336;2022-12-24T12:57:12;22.47;;;6.47;;
14470;SDS011;7321;50.802;4.336;2022-12-24T12:59:44;28.73;;;7.87;;
14470;SDS011;7321;50.802;4.336;2022-12-24T13:13:49;24.23;;;8.33;;
14470;SDS011;7321;50.802;4.336;2022-12-24T13:21:42;24.73;;;7.17;;
14470;SDS011;7321;50.802;4.336;2022-12-24T13:24:20;22.27;;;6.87;;
14470;SDS011;7321;50.802;4.336;2022-12-24T13:29:56;21.27;;;6.07;;
14470;SDS011;7321;50.802;4.336;2022-12-24T13:35:00;20.40;;;5.53;;
14470;SDS011;7321;50.802;4.336;2022-12-24T13:40:00;22.70;;;6.37;;
14470;SDS011;7321;50.802;4.336;2022-12-24T13:53:03;27.40;;;6.70;;
14470;SDS011;7321;50.802;4.336;2022-12-24T13:55:31;18.97;;;6.90;;
14470;SDS011;7321;50.802;4.336;2022-12-24T13:57:58;19.83;;;6.50;;
14470;SDS011;7321;50.802;4.336;2022-12-24T14:00:36;21.53;;;6.07;;
14470;SDS011;7321;50.802;4.336;2022-12-24T14:08:10;20.43;;;6.60;;
14470;SDS011;7321;50.802;4.336;2022-12-24T14:10:39;25.47;;;7.50;;
14470;SDS011;7321;50.802;4.336;2022-12-24T14:19:00;25.07;;;7.10;;
14470;SDS011;7321;50.802;4.336;2022-12-24T14:21:31;20.70;;;7.43;;
14470;SDS011;7321;50.802;4.336;2022-12-24T14:24:22;21.17;;;6.87;;
14470;SDS011;7321;50.802;4.336;2022-12-24T14:26:58;24.37;;;6.60;;
14470;SDS011;7321;50.802;4.336;2022-12-24T14:32:35;23.17;;;6.83;;
14470;SDS011;7321;50.802;4.336;2022-12-24T14:37:38;26.17;;;8.27;;
14470;SDS011;7321;50.802;4.336;2022-12-24T14:40:06;27.37;;;8.03;;
14470;SDS011;7321;50.802;4.336;2022-12-24T14:45:10;30.33;;;7.13;;
14470;SDS011;7321;50.802;4.336;2022-12-24T14:48:16;21.57;;;6.83;;
14470;SDS011;7321;50.802;4.336;2022-12-24T14:56:27;22.90;;;6.70;;
14470;SDS011;7321;50.802;4.336;2022-12-24T14:58:53;19.33;;;6.77;;
14470;SDS011;7321;50.802;4.336;2022-12-24T15:01:20;26.80;;;7.67;;
14470;SDS011;7321;50.802;4.336;2022-12-24T15:09:18;29.17;;;7.87;;
14470;SDS011;7321;50.802;4.336;2022-12-24T15:11:49;25.50;;;7.87;;
14470;SDS011;7321;50.802;4.336;2022-12-24T15:14:18;24.93;;;8.47;;
14470;SDS011;7321;50.802;4.336;2022-12-24T15:16:51;26.67;;;8.40;;
14470;SDS011;7321;50.802;4.336;2022-12-24T15:21:55;23.17;;;8.80;;
14470;SDS011;7321;50.802;4.336;2022-12-24T15:26:57;29.80;;;9.07;;
14470;SDS011;7321;50.802;4.336;2022-12-24T15:29:28;28.13;;;8.90;;
14470;SDS011;7321;50.802;4.336;2022-12-24T15:31:57;25.00;;;8.23;;
14470;SDS011;7321;50.802;4.336;2022-12-24T15:34:34;29.70;;;8.63;;
14470;SDS011;7321;50.802;4.336;2022-12-24T15:37:03;23.03;;;7.17;;
14470;SDS011;7321;50.802;4.336;2022-12-24T15:39:37;25.73;;;7.53;;
14470;SDS011;7321;50.802;4.336;2022-12-24T15:42:04;33.27;;;9.17;;
14470;SDS011;7321;50.802;4.336;2022-12-24T15:44:37;23.80;;;8.10;;
14470;SDS011;7321;50.802;4.336;2022-12-24T15:47:16;29.70;;;9.93;;
14470;SDS011;7321;50.802;4.336;2022-12-24T15:49:49;30.37;;;10.13;;
14470;SDS011;7321;50.802;4.336;2022-12-24T15:52:16;28.30;;;9.70;;
14470;SDS011;7321;50.802;4.336;2022-12-24T15:54:48;31.70;;;8.50;;
14470;SDS011;7321;50.802;4.336;2022-12-24T15:57:20;27.73;;;8.43;;
14470;SDS011;7321;50.802;4.336;2022-12-24T16:00:30;26.83;;;8.83;;
14470;SDS011;7321;50.802;4.336;2022-12-24T16:06:53;29.40;;;11.37;;
14470;SDS011;7321;50.802;4.336;2022-12-24T16:15:32;29.43;;;9.27;;
14470;SDS011;7321;50.802;4.336;2022-12-24T16:18:34;31.97;;;9.57;;
14470;SDS011;7321;50.802;4.336;2022-12-24T16:22:02;25.63;;;9.43;;
14470;SDS011;7321;50.802;4.336;2022-12-24T16:24:50;30.43;;;10.67;;
14470;SDS011;7321;50.802;4.336;2022-12-24T16:27:16;35.50;;;10.07;;
14470;SDS011;7321;50.802;4.336;2022-12-24T16:29:42;29.77;;;9.17;;
14470;SDS011;7321;50.802;4.336;2022-12-24T16:35:00;24.03;;;9.07;;
14470;SDS011;7321;50.802;4.336;2022-12-24T16:37:30;29.23;;;10.00;;
14470;SDS011;7321;50.802;4.336;2022-12-24T16:39:56;29.20;;;9.50;;
14470;SDS011;7321;50.802;4.336;2022-12-24T16:42:23;27.93;;;9.57;;
14470;SDS011;7321;50.802;4.336;2022-12-24T16:45:25;29.03;;;9.53;;
14470;SDS011;7321;50.802;4.336;2022-12-24T16:48:21;36.80;;;14.70;;
14470;SDS011;7321;50.802;4.336;2022-12-24T16:50:48;35.23;;;11.70;;
14470;SDS011;7321;50.802;4.336;2022-12-24T16:53:15;30.47;;;15.27;;
14470;SDS011;7321;50.802;4.336;2022-12-24T16:55:42;30.53;;;12.90;;
14470;SDS011;7321;50.802;4.336;2022-12-24T16:58:13;35.47;;;14.40;;
14470;SDS011;7321;50.802;4.336;2022-12-24T17:00:40;29.53;;;15.60;;
14470;SDS011;7321;50.802;4.336;2022-12-24T17:03:08;35.10;;;16.57;;
14470;SDS011;7321;50.802;4.336;2022-12-24T17:05:41;43.20;;;20.47;;
14470;SDS011;7321;50.802;4.336;2022-12-24T17:08:24;50.10;;;23.67;;
14470;SDS011;7321;50.802;4.336;2022-12-24T17:10:52;39.77;;;20.27;;
14470;SDS011;7321;50.802;4.336;2022-12-24T17:13:32;65.83;;;35.83;;
14470;SDS011;7321;50.802;4.336;2022-12-24T17:19:50;33.37;;;16.10;;
14470;SDS011;7321;50.802;4.336;2022-12-24T17:33:10;29.00;;;11.40;;
14470;SDS011;7321;50.802;4.336;2022-12-24T17:36:46;28.43;;;14.00;;
14470;SDS011;7321;50.802;4.336;2022-12-24T17:39:46;26.13;;;12.27;;
14470;SDS011;7321;50.802;4.336;2022-12-24T17:46:07;28.13;;;11.90;;
14470;SDS011;7321;50.802;4.336;2022-12-24T17:49:16;30.70;;;12.67;;
14470;SDS011;7321;50.802;4.336;2022-12-24T17:52:06;23.50;;;11.77;;
14470;SDS011;7321;50.802;4.336;2022-12-24T17:55:46;28.93;;;15.83;;
14470;SDS011;7321;50.802;4.336;2022-12-24T18:05:45;32.33;;;18.10;;
14470;SDS011;7321;50.802;4.336;2022-12-24T18:11:38;37.33;;;15.53;;
14470;SDS011;7321;50.802;4.336;2022-12-24T18:17:33;27.63;;;13.90;;
14470;SDS011;7321;50.802;4.336;2022-12-24T18:20:11;24.20;;;11.10;;